SCC: Daytona Test practice six times

Pos Num Class ClsP Team Time Gap To 1st Speed --- --- ----- ---- ------------------------------ ---------- ------- ------- ------- 1. 38 GS 1 BGB Motorsports 2:02.590 ...

Pos Num Class ClsP Team                                 Time     Gap  To 1st   Speed
--- --- ----- ---- ------------------------------ ---------- ------- ------- -------
 1.  38 GS    1    BGB Motorsports                  2:02.590                 104.544
 2.  83 GS    2    BGB Motorsports                  2:03.380   0.790   0.790 103.874
 3.  25 GS    3    Fiorano/C-MAX Racing             2:03.697   0.317   1.107 103.608
 4.   4 GS    4    Blackforest Motorsports          2:04.065   0.368   1.475 103.301
 5.  72 GS    5    BGB Motorsports                  2:04.194   0.129   1.604 103.193
 6.  52 GS    6    Rehagen Racing                   2:04.320   0.126   1.730 103.089
 7.  80 GS    7    Kinetic Motorsports              2:04.518   0.198   1.928 102.925
 8.  44 GS    8    ASC Motorsports                  2:04.539   0.021   1.949 102.908
 9.  99 GS    9    Automatic Racing                 2:04.869   0.330   2.279 102.636
10.  54 GS    10   Hyper Sport                      2:05.029   0.160   2.439 102.504
11.  79 GS    11   Kinetic Motorsports              2:05.041   0.012   2.451 102.494
12.  09 GS    12   Automatic Racing                 2:05.155   0.114   2.565 102.401
13.  87 GS    13   LNS Motorsport                   2:05.294   0.139   2.704 102.287
14.  60 GS    14   Horsepower Ranch                 2:05.348   0.054   2.758 102.243
15.  71 GS    15   Synergy Racing                   2:05.404   0.056   2.814 102.198
16.  11 GS    16   Southwest Racers Group           2:05.706   0.302   3.116 101.952
17. 154 GS    17   Jim Click Racing                 2:05.756   0.050   3.166 101.912
18.  41 GS    18   TRG                              2:05.809   0.053   3.219 101.869
19.  10 GS    19   Spirit of Daytona Racing         2:06.026   0.217   3.436 101.693
20.  61 GS    20   Horsepower Ranch                 2:06.293   0.267   3.703 101.478
21.  17 GS    21   Team Centurion                   2:06.720   0.427   4.130 101.136
22.  89 GS    22   LNS Motorsport                   2:06.737   0.017   4.147 101.123
23.  40 GS    23   TRG                              2:07.602   0.865   5.012 100.437
24.  78 GS    24   Kinetic Motorsports              2:08.290   0.688   5.700  99.899
25.  39 GS    25   TRG                              2:08.607   0.317   6.017  99.652
26.  43 GS    26   ASC Motorsports                  2:09.867   1.260   7.277  98.686
27.  50 GS    27   Eastern Competition Promotorsp   2:10.733   0.866   8.143  98.032
28.  76 ST    1    Kensai Racing                    2:10.859   0.126   8.269  97.937
29.  75 ST    2    Kensai Racing                    2:11.011   0.152   8.421  97.824
30.  32 ST    3    i-MOTO Racing                    2:11.175   0.164   8.585  97.702
31.  86 ST    4    Classic BMW - Plano              2:11.820   0.645   9.230  97.223
32. 126 ST    5    Fountain Motorsports             2:12.309   0.489   9.719  96.864
33.  62 ST    6    Roar Racing                      2:13.460   1.151  10.870  96.029
34. 131 ST    7    GT Racing                        2:14.820   1.360  12.230  95.060
35. 121 ST    8    GT Racing                        2:14.908   0.088  12.318  94.998
36.  42 GS    28   TRG                              2:15.217   0.309  12.627  94.781
37.  98 ST    9    Team Cobalt California           2:15.886   0.669  13.296  94.314
38.  12 ST    10   Southwest Racers Group           2:16.874   0.988  14.284  93.634
39.  48 ST    11   Team Cobalt California           2:17.102   0.228  14.512  93.478
40. 138 ST    12   GS Motorsport                    2:17.290   0.188  14.700  93.350
41.  24 ST    13   V-Pack Motorsport                2:17.721   0.431  15.131  93.058
42.  02 ST    14   Blackforest Motorsports          2:18.268   0.547  15.678  92.690
43.  56 ST    15   BSI Racing                       2:18.845   0.577  16.255  92.304
44.  58 ST    16   BSI Racing                       2:19.373   0.528  16.783  91.955
45. 118 ST    17   Rotary Power Motorsports         2:19.426   0.053  16.836  91.920
46.  31 ST    18   i-MOTO Racing                    2:20.101   0.675  17.511  91.477
47.  26 GS    29   Fiorano/C-MAX Racing             4:32.423 2:12.32 2:29.83  47.044
48.   2 GS    30   Blackforest Motorsports           No Time
49.   3 GS    31   Blackforest Motorsports           No Time
50.   5 GS    32   Blackforest Motorsports           No Time
51.   6 GS    33   Blackforest Motorsports           No Time
52.  07 GS    34   Cardiosport Racing                No Time
53.   9 GS    35   Spirit of Daytona Racing          No Time
54.  18 GS    36   Race Prep Motorsports             No Time
55.  28 GS    37   Fall-Line Motorsports             No Time
56.  46 GS    38   Fall-Line Motorsports             No Time
57.  55 GS    39   Hyper Sport                       No Time
58.  59 GS    40   Rehagen Racing                    No Time
59.  88 GS    41   LNS Motorsport                    No Time
60.  90 GS    42   Automatic Racing                  No Time
61.  91 GS    43   Automatic Racing                  No Time
62.  14 ST    19   MY Motorsports                    No Time
63.  23 ST    20   MY Motorsports                    No Time
64.  34 ST    21   Whatever Racing                   No Time
65.  63 ST    22   Roar Racing                       No Time
66.  74 ST    23   Kensai Racing                     No Time
67.  85 ST    24   Classic BMW - Plano               No Time
68. 125 ST    25   Fountain Motorsports              No Time
69. 151 ST    26   Competition Marketing Motorspo    No Time

Be part of something big

Write a comment
Show comments
About this article
Series Grand-Am
Drivers Jim Click
Teams Kinetic Motorsports , Rehagen Racing , Automatic Racing , Fall-Line Motorsports